Vargoey — LMEU — position and weather

sailwx.info

Track history (hours):
 
Tides and Currents Weather Stations Pressure Air Temp Water Temp Dewpoint Dewpoint Depression Visibility Wind Speed Wind Dir Waves Ship Positions

Vargoey

Last reported at 2018-May-22 02:30 UTC. Time now 2018-May-22 02:29 UTC.
Position N 67°22' E 014°24'.

Length 55 m.

Type: Cargo ship. MMSI: 258434000.

Date/timePositionNaut miles runAvg speedWind from/ knotsBaromVisibWave heightAir tempDewpointWater temp
2018-May-22 02:30N 67°22' E 014°24'5 9.1
2018-May-22 02:00N 67°26' E 014°27'5 9.3
2018-May-22 01:30N 67°31' E 014°29'5 9.5
2018-May-22 00:59N 67°36' E 014°30'5 9.6
2018-May-22 00:29N 67°41' E 014°31'4 9.3
2018-May-22 00:00N 67°45' E 014°31'4 8.8
2018-May-21 23:30N 67°49' E 014°31'5 9.0
2018-May-21 22:59N 67°54' E 014°31'4 9.1
2018-May-21 22:30N 67°58' E 014°32'5 9.5
2018-May-21 21:59N 68°03' E 014°33'5 9.5
2018-May-21 21:30N 68°08' E 014°34'5 9.6
2018-May-21 21:00N 68°13' E 014°36'2 3.4
2018-May-21 20:30N 68°14' E 014°35'2 3.8
2018-May-21 20:00N 68°14' E 014°40'5 9.2
2018-May-21 19:30N 68°13' E 014°52'5 9.6
2018-May-21 19:00N 68°17' E 014°58'5 9.3
2018-May-21 18:30N 68°22' E 015°03'4 8.7
2018-May-21 18:00N 68°25' E 015°08'4 8.3
2018-May-21 17:30N 68°29' E 015°12'4 8.4
2018-May-21 17:00N 68°33' E 015°10'5 9.1
2018-May-21 16:30N 68°37' E 015°18'5 9.3
2018-May-21 16:00N 68°41' E 015°26'4 8.7
2018-May-21 15:30N 68°45' E 015°25'4 8.9
2018-May-21 15:00N 68°50' E 015°27'5 9.1
2018-May-21 14:29N 68°54' E 015°33'4 8.9
2018-May-21 14:00N 68°58' E 015°38'0 0.9
2018-May-21 13:30N 68°58' E 015°38'3 5.3
2018-May-21 13:00N 68°59' E 015°46'4 8.9
2018-May-21 12:30N 68°58' E 015°58'5 9.7
2018-May-21 12:00N 68°57' E 016°11'5 9.3
2018-May-21 11:30N 68°54' E 016°22'5 9.3
2018-May-21 10:59N 68°51' E 016°32'4 8.2
2018-May-21 10:30N 68°48' E 016°37'2 4.4
2018-May-21 09:59N 68°49' E 016°42'510.0
2018-May-21 09:30N 68°52' E 016°51'5 9.9
2018-May-21 09:00N 68°56' E 017°01'5 9.3
2018-May-21 08:30N 68°59' E 017°11'5 9.6
2018-May-21 08:00N 69°03' E 017°19'5 9.3
2018-May-21 07:30N 69°06' E 017°28'5 9.7
2018-May-21 07:00N 69°08' E 017°41'510.1
2018-May-21 06:29N 69°10' E 017°54'4 7.6
2018-May-21 06:00N 69°13' E 017°59'5 9.2
2018-May-21 05:27N 69°18' E 017°58'4 9.1
2018-May-21 05:00N 69°21' E 018°06'4 8.6
2018-May-21 04:30N 69°26' E 018°07'5 9.1
2018-May-21 03:58N 69°30' E 018°04'5 9.5
2018-May-21 03:30N 69°35' E 017°59'2 4.5
2018-May-21 03:00N 69°36' E 018°02'0 0.0
2018-May-21 02:30N 69°36' E 018°02'0 0.8
2018-May-21 02:00N 69°37' E 018°02'4 8.4
2018-May-21 01:29N 69°40' E 018°12'4 7.3
2018-May-21 01:00N 69°43' E 018°14'4 8.5
2018-May-21 00:30N 69°47' E 018°18'4 8.3
2018-May-21 00:00N 69°49' E 018°29'4 7.2
2018-May-20 23:30N 69°50' E 018°38'1 1.9
2018-May-20 22:59N 69°50' E 018°35'1 1.1
2018-May-20 22:28N 69°51' E 018°36'4 8.8
2018-May-20 22:00N 69°55' E 018°39'4 8.6
2018-May-20 21:30N 69°59' E 018°44'5 9.6
2018-May-20 21:00N 70°02' E 018°53'5 9.2
2018-May-20 20:30N 70°05' E 019°04'4 9.1
2018-May-20 20:00N 70°06' E 019°17'5 9.2
2018-May-20 19:29N 70°04' E 019°30'5 9.6
2018-May-20 19:00N 70°03' E 019°43'4 8.8
2018-May-20 18:30N 70°03' E 019°56'4 8.5
2018-May-20 18:00N 70°05' E 020°06'5 8.7
2018-May-20 17:28N 70°08' E 020°16'4 8.4
2018-May-20 17:00N 70°11' E 020°24'3 5.1
2018-May-20 16:30N 70°12' E 020°31'0 0.0
2018-May-20 16:00N 70°12' E 020°31'0 0.0
2018-May-20 15:30N 70°12' E 020°31'2 4.9
2018-May-20 15:00N 70°14' E 020°34'4 8.1
2018-May-20 14:30N 70°15' E 020°45'4 8.5
2018-May-20 13:59N 70°16' E 020°58'4 8.9
2018-May-20 13:30N 70°17' E 021°11'4 8.6
2018-May-20 13:00N 70°18' E 021°23'4 8.6
2018-May-20 12:29N 70°21' E 021°32'4 8.9
2018-May-20 12:00N 70°24' E 021°41'5 9.1
2018-May-20 11:29N 70°25' E 021°54'5 9.5
2018-May-20 11:00N 70°26' E 022°08'5 9.6
2018-May-20 10:30N 70°28' E 022°21'5 9.7
2018-May-20 10:00N 70°29' E 022°36'5 9.8
2018-May-20 09:29N 70°30' E 022°50'4 9.0
2018-May-20 09:00N 70°32' E 023°02'5 9.0
2018-May-20 08:29N 70°36' E 023°11'5 9.7
2018-May-20 08:00N 70°39' E 023°21'5 9.5
2018-May-20 07:30N 70°42' E 023°31'5 8.9
2018-May-20 06:59N 70°46' E 023°41'4 8.9
2018-May-20 06:29N 70°47' E 023°54'4 8.9
2018-May-20 06:00N 70°49' E 024°06'4 8.6
2018-May-20 05:30N 70°52' E 024°15'4 7.6
2018-May-20 04:59N 70°54' E 024°24'4 8.7
2018-May-20 04:30N 70°58' E 024°30'4 7.3
2018-May-20 04:00N 70°60' E 024°40'4 7.8
2018-May-20 03:29N 70°59' E 024°53'4 8.2
2018-May-20 03:00N 70°59' E 025°05'4 8.6
2018-May-20 02:30N 70°59' E 025°18'3 6.8
2018-May-20 02:00N 70°58' E 025°27'3 6.4
2018-May-20 01:30N 70°56' E 025°35'4 8.6
2018-May-20 01:00N 70°56' E 025°48'4 8.6
2018-May-20 00:30N 70°58' E 026°00'4 8.5
2018-May-20 00:00N 71°00' E 026°11'4 7.4
2018-May-19 23:29N 71°04' E 026°11'510.3
2018-May-19 23:00N 71°03' E 025°56'1 2.2
2018-May-19 22:30N 71°03' E 025°54'0 0.0
2018-May-19 22:00N 71°03' E 025°54'0 0.0
2018-May-19 21:30N 71°03' E 025°54'0 0.0
2018-May-19 21:00N 71°03' E 025°54'0 0.0
2018-May-19 20:30N 71°03' E 025°54'0 0.0
2018-May-19 20:00N 71°03' E 025°54'0 0.0
2018-May-19 19:30N 71°03' E 025°54'0 0.0
2018-May-19 18:59N 71°03' E 025°54'0 0.0
2018-May-19 18:29N 71°03' E 025°54'1 1.2
2018-May-19 18:00N 71°03' E 025°54'4 8.7
2018-May-19 17:30N 71°06' E 026°04'4 7.4
2018-May-19 17:00N 71°08' E 025°54'1 2.5
2018-May-19 16:30N 71°09' E 025°52'610.5
2018-May-19 15:58N 71°11' E 025°36'611.7
2018-May-19 15:30N 71°11' E 025°19'511.0
2018-May-19 15:00N 71°10' E 025°02'610.9
2018-May-19 14:30N 71°09' E 024°46'510.4
2018-May-19 14:00N 71°08' E 024°30'510.2
2018-May-19 13:30N 71°07' E 024°14'510.3
2018-May-19 13:00N 71°06' E 023°58'5 9.7
2018-May-19 12:29N 71°02' E 023°52'2 3.3
2018-May-19 12:00N 71°00' E 023°54'0 0.0
2018-May-19 11:30N 71°00' E 023°54'0 0.0
2018-May-19 11:00N 71°00' E 023°54'0 0.0
2018-May-19 10:30N 71°00' E 023°54'0 0.0
2018-May-19 09:59N 71°00' E 023°54'0 0.0
2018-May-19 09:30N 71°00' E 023°54'0 0.0
2018-May-19 09:00N 71°00' E 023°54'0 0.0
2018-May-19 08:30N 71°00' E 023°54'1 2.3
2018-May-19 08:00N 71°00' E 023°51'5 9.5
2018-May-19 07:30N 70°56' E 023°45'5 9.8
2018-May-19 06:59N 70°51' E 023°38'5 9.9
2018-May-19 06:30N 70°47' E 023°31'2 4.2
2018-May-19 06:00N 70°48' E 023°25'3 5.3
2018-May-19 05:30N 70°45' E 023°29'510.4
2018-May-19 05:00N 70°40' E 023°34'2 3.9
2018-May-19 04:30N 70°40' E 023°40'0 0.0
2018-May-19 04:00N 70°40' E 023°40'0 0.0
2018-May-19 03:30N 70°40' E 023°40'4 8.9
2018-May-19 03:00N 70°36' E 023°36'610.8
2018-May-19 02:29N 70°31' E 023°39'510.5
2018-May-19 02:00N 70°25' E 023°38'612.0
2018-May-19 01:30N 70°21' E 023°27'611.2
2018-May-19 01:00N 70°16' E 023°17'510.8
2018-May-19 00:30N 70°12' E 023°09'510.8
2018-May-19 00:00N 70°06' E 023°07'510.3
2018-May-18 23:30N 70°02' E 023°15'3 6.9
2018-May-18 23:00N 69°59' E 023°20'0 0.0
2018-May-18 22:30N 69°59' E 023°20'2 4.5
2018-May-18 22:00N 69°58' E 023°14'1 1.3
2018-May-18 21:30N 69°58' E 023°14'0 0.0
2018-May-18 20:57N 69°58' E 023°14'0 0.0
2018-May-18 20:29N 69°58' E 023°14'0 0.0
2018-May-18 19:57N 69°58' E 023°14'0 0.0
2018-May-18 19:30N 69°58' E 023°14'0 0.0
2018-May-18 19:00N 69°58' E 023°14'0 0.1
2018-May-18 18:30N 69°58' E 023°14'5 9.9
2018-May-18 18:00N 70°02' E 023°08'510.3
2018-May-18 17:29N 70°07' E 023°04'510.3
2018-May-18 17:00N 70°12' E 022°59'510.3
2018-May-18 16:30N 70°14' E 022°45'510.4
2018-May-18 15:59N 70°16' E 022°30'510.6
2018-May-18 15:30N 70°19' E 022°17'510.8
2018-May-18 15:00N 70°21' E 022°02'510.6
2018-May-18 14:30N 70°23' E 021°48'5 9.5
2018-May-18 14:00N 70°22' E 021°35'611.0
2018-May-18 13:28N 70°18' E 021°23'510.3
2018-May-18 12:57N 70°14' E 021°11'410.0
2018-May-18 12:30N 70°10' E 021°09'510.1
2018-May-18 12:00N 70°05' E 021°08'510.1
2018-May-18 11:29N 69°60' E 021°07'510.2
2018-May-18 11:00N 69°55' E 021°03'510.2
2018-May-18 10:30N 69°50' E 020°58'2 1.4
2018-May-18 08:48N 69°48' E 020°57'0 0.0
2018-May-18 08:23N 69°48' E 020°57'0 0.0
2018-May-18 07:59N 69°48' E 020°57'2 3.5
2018-May-18 07:30N 69°49' E 020°57'510.0
2018-May-18 06:59N 69°54' E 021°02'4 7.3
2018-May-18 06:30N 69°58' E 021°02'5 9.7
2018-May-18 06:00N 69°55' E 020°50'5 9.8
2018-May-18 05:29N 69°56' E 020°36'510.7
2018-May-18 04:59N 70°01' E 020°28'5 9.9
2018-May-18 04:30N 70°05' E 020°20'5 9.4
2018-May-18 04:00N 70°10' E 020°22'4 7.5
2018-May-18 03:30N 70°12' E 020°31'0 0.1
2018-May-18 03:00N 70°12' E 020°31'0 0.0
2018-May-18 02:30N 70°12' E 020°31'4 8.5
2018-May-18 01:59N 70°10' E 020°19'510.1
2018-May-18 01:30N 70°08' E 020°06'3 5.0
2018-May-18 00:59N 70°08' E 019°59'0 0.0
2018-May-18 00:29N 70°08' E 019°59'0 0.0
2018-May-18 00:00N 70°08' E 019°59'0 0.0
2018-May-17 23:30N 70°08' E 019°59'0 0.0
2018-May-17 23:00N 70°08' E 019°59'0 0.0
2018-May-17 22:30N 70°08' E 019°59'2 4.5
2018-May-17 22:00N 70°07' E 020°05'4 7.2
2018-May-17 21:30N 70°04' E 020°02'510.3
2018-May-17 21:00N 70°01' E 019°49'510.5
2018-May-17 20:30N 69°57' E 019°38'510.6
2018-May-17 20:00N 69°54' E 019°28'510.6
2018-May-17 19:30N 69°49' E 019°20'510.7
2018-May-17 19:00N 69°46' E 019°08'510.8
2018-May-17 18:30N 69°42' E 018°57'4 8.7
2018-May-17 17:59N 69°41' E 018°45'0 0.0
2018-May-17 17:30N 69°41' E 018°45'0 0.0
2018-May-17 17:00N 69°41' E 018°45'0 0.1
2018-May-17 16:29N 69°41' E 018°45'3 7.0
2018-May-17 16:00N 69°39' E 018°53'3 5.5
2018-May-17 15:30N 69°40' E 018°59'1 1.7
2018-May-17 15:00N 69°39' E 018°59'0 0.3
2018-May-17 14:29N 69°39' E 018°58'1 1.5
2018-May-17 14:00N 69°39' E 018°58'510.0
2018-May-17 13:30N 69°34' E 018°55'5 9.9
2018-May-17 13:00N 69°29' E 018°57'5 9.8
2018-May-17 12:30N 69°24' E 019°02'5 9.5
2018-May-17 12:00N 69°21' E 019°13'5 9.2
2018-May-17 11:29N 69°18' E 019°22'4 7.4
2018-May-17 11:00N 69°14' E 019°22'0 0.0
2018-May-17 10:30N 69°14' E 019°22'0 0.0
2018-May-17 10:00N 69°14' E 019°22'0 0.0
2018-May-17 09:28N 69°14' E 019°22'0 0.0
2018-May-17 09:00N 69°14' E 019°22'0 0.0
2018-May-17 08:30N 69°14' E 019°22'0 0.0
2018-May-17 08:00N 69°14' E 019°22'0 0.0
2018-May-17 07:29N 69°14' E 019°22'0 0.0
2018-May-17 07:00N 69°14' E 019°22'0 0.0
2018-May-17 06:29N 69°14' E 019°22'0 0.0
2018-May-17 06:00N 69°14' E 019°22'0 0.0
2018-May-17 05:30N 69°14' E 019°22'0 0.0
2018-May-17 05:00N 69°14' E 019°22'0 0.0
2018-May-17 04:30N 69°14' E 019°22'0 0.0
2018-May-17 03:58N 69°14' E 019°22'0 0.0
2018-May-17 03:30N 69°14' E 019°22'0 0.0
2018-May-17 03:00N 69°14' E 019°22'0 0.0
2018-May-17 02:30N 69°14' E 019°22'0 0.0
2018-May-17 02:00N 69°14' E 019°22'0 0.6
2018-May-17 01:30N 69°15' E 019°22'510.2
2018-May-17 00:59N 69°20' E 019°21'510.1
2018-May-17 00:30N 69°22' E 019°09'5 9.6
2018-May-16 23:59N 69°26' E 018°60'5 9.5
2018-May-16 23:30N 69°30' E 018°55'4 9.0
2018-May-16 23:00N 69°34' E 018°49'611.7
2018-May-16 22:30N 69°32' E 018°33'510.1
2018-May-16 22:00N 69°30' E 018°19'510.0
2018-May-16 21:30N 69°27' E 018°07'510.0
2018-May-16 20:58N 69°22' E 018°06'4 9.0
2018-May-16 20:30N 69°19' E 017°59'5 9.4
2018-May-16 19:59N 69°14' E 017°58'0 0.1
2018-May-16 19:30N 69°14' E 017°58'0 0.0
2018-May-16 19:00N 69°14' E 017°58'0 0.2
2018-May-16 18:30N 69°14' E 017°58'0 0.6
2018-May-16 18:00N 69°13' E 017°58'4 8.6
2018-May-16 17:30N 69°09' E 018°03'1 2.6
2018-May-16 17:00N 69°08' E 018°05'4 8.4
2018-May-16 16:29N 69°09' E 017°53'510.2
2018-May-16 16:00N 69°07' E 017°39'510.1
2018-May-16 15:30N 69°05' E 017°26'510.1
2018-May-16 15:00N 69°01' E 017°18'510.3
2018-May-16 14:30N 68°58' E 017°07'510.6
2018-May-16 13:59N 68°54' E 016°55'4 8.8
2018-May-16 13:30N 68°52' E 016°46'4 9.1
2018-May-16 13:00N 68°49' E 016°36'2 3.0
2018-May-16 12:29N 68°48' E 016°33'0 0.0
2018-May-16 11:59N 68°48' E 016°33'0 0.0
2018-May-16 11:30N 68°48' E 016°33'0 0.0
2018-May-16 11:00N 68°48' E 016°33'0 0.0
2018-May-16 10:29N 68°48' E 016°33'0 0.0
2018-May-16 10:00N 68°48' E 016°33'0 0.0
2018-May-16 09:30N 68°48' E 016°33'0 0.0
2018-May-16 09:00N 68°48' E 016°33'0 0.0
2018-May-16 08:30N 68°48' E 016°33'0 0.0
2018-May-16 08:00N 68°48' E 016°33'2 2.9
2018-May-16 07:29N 68°49' E 016°35'3 5.8
2018-May-16 07:00N 68°51' E 016°31'4 7.1
2018-May-16 06:30N 68°54' E 016°23'4 7.1
2018-May-16 05:59N 68°56' E 016°16'4 7.3
2018-May-16 05:30N 68°57' E 016°06'4 7.4
2018-May-16 05:00N 68°59' E 015°57'4 7.9
2018-May-16 04:30N 68°59' E 015°46'3 5.4
2018-May-16 04:00N 68°58' E 015°38'0 0.0
2018-May-16 03:30N 68°58' E 015°38'0 0.4
2018-May-16 02:59N 68°58' E 015°38'1 1.7
2018-May-16 02:30N 68°57' E 015°36'1 1.9
2018-May-16 02:00N 68°56' E 015°36'2 3.6
2018-May-16 01:30N 68°55' E 015°35'3 6.9
2018-May-16 01:00N 68°52' E 015°30'4 8.4
2018-May-16 00:30N 68°48' E 015°26'5 9.5
2018-May-16 00:00N 68°43' E 015°26'5 9.1
2018-May-15 23:30N 68°39' E 015°21'5 9.6
2018-May-15 23:00N 68°35' E 015°13'5 9.4
2018-May-15 22:29N 68°30' E 015°11'4 8.6
2018-May-15 22:00N 68°26' E 015°09'510.6
2018-May-15 21:30N 68°21' E 015°03'4 9.0
2018-May-15 21:00N 68°17' E 014°58'5 9.3
2018-May-15 20:30N 68°13' E 014°54'5 9.6
2018-May-15 20:00N 68°08' E 014°49'5 9.5
2018-May-15 19:29N 68°04' E 014°44'4 9.0
2018-May-15 19:00N 67°60' E 014°40'5 9.4
2018-May-15 18:30N 67°55' E 014°35'5 9.3
2018-May-15 18:00N 67°51' E 014°31'5 9.5
2018-May-15 17:30N 67°46' E 014°32'5 9.5
2018-May-15 17:00N 67°42' E 014°31'5 9.6
2018-May-15 16:30N 67°37' E 014°30'5 9.6
2018-May-15 15:59N 67°32' E 014°30'5 9.5
2018-May-15 15:30N 67°27' E 014°28'5 9.4
2018-May-15 15:01N 67°23' E 014°25'5 9.5
2018-May-15 14:30N 67°19' E 014°18'4 8.4
2018-May-15 14:00N 67°15' E 014°14'5 9.4
2018-May-15 13:30N 67°15' E 014°26'4 8.3
2018-May-15 13:00N 67°14' E 014°37'3 5.5
2018-May-15 12:30N 67°14' E 014°44'3 5.7
2018-May-15 12:00N 67°15' E 014°50'3 6.1
2018-May-15 11:30N 67°16' E 014°58'2 3.6
2018-May-15 11:00N 67°14' E 015°01'0 0.0
2018-May-15 10:29N 67°14' E 015°01'0 0.0
2018-May-15 10:00N 67°14' E 015°01'0 0.0
2018-May-15 09:30N 67°14' E 015°01'0 0.0
2018-May-15 09:00N 67°14' E 015°01'0 0.0
2018-May-15 08:30N 67°14' E 015°01'3 6.3
2018-May-15 08:00N 67°16' E 014°54'5 9.3
2018-May-15 07:30N 67°14' E 014°43'3 5.9
2018-May-15 07:00N 67°15' E 014°36'1 2.9
2018-May-15 06:30N 67°15' E 014°32'3 5.5
2018-May-15 06:00N 67°14' E 014°26'3 5.5
2018-May-15 05:30N 67°13' E 014°19'4 7.4
2018-May-15 05:00N 67°11' E 014°11'4 8.7
2018-May-15 04:30N 67°09' E 014°02'5 8.9
2018-May-15 04:00N 67°05' E 013°56'4 8.9
2018-May-15 03:30N 67°02' E 013°48'5 9.0
2018-May-15 02:59N 66°60' E 013°37'4 8.5
2018-May-15 02:30N 66°57' E 013°29'4 7.6
2018-May-15 01:59N 66°54' E 013°34'3 7.0
2018-May-15 01:30N 66°53' E 013°42'0 0.0
2018-May-15 01:00N 66°53' E 013°42'0 0.0
2018-May-15 00:30N 66°53' E 013°42'1 2.1
2018-May-15 00:00N 66°51' E 013°42'4 7.6
2018-May-14 23:30N 66°49' E 013°34'4 8.5
2018-May-14 23:00N 66°48' E 013°23'4 8.5
2018-May-14 22:30N 66°46' E 013°14'5 8.8
2018-May-14 21:59N 66°41' E 013°09'5 9.9
2018-May-14 21:30N 66°37' E 013°05'5 9.4
2018-May-14 21:00N 66°33' E 013°01'4 8.8
2018-May-14 20:30N 66°28' E 013°02'5 9.4
2018-May-14 20:00N 66°24' E 013°08'0 0.5
2018-May-14 19:30N 66°24' E 013°07'5 9.4
2018-May-14 19:00N 66°21' E 012°58'5 9.9
2018-May-14 18:30N 66°16' E 012°55'510.2
2018-May-14 18:00N 66°11' E 012°51'5 9.7
2018-May-14 17:30N 66°07' E 012°46'510.0
2018-May-14 17:00N 66°03' E 012°38'5 9.8
2018-May-14 16:30N 65°59' E 012°30'5 9.9
2018-May-14 16:00N 65°55' E 012°23'5 9.5
2018-May-14 15:29N 65°51' E 012°22'5 9.6
2018-May-14 15:00N 65°46' E 012°20'5 9.8
2018-May-14 14:30N 65°41' E 012°16'510.0
2018-May-14 14:00N 65°36' E 012°14'510.0
2018-May-14 13:30N 65°31' E 012°12'4 7.6
2018-May-14 13:00N 65°28' E 012°11'5 9.5
2018-May-14 12:30N 65°23' E 012°07'5 9.6
2018-May-14 12:00N 65°19' E 012°01'5 9.9
2018-May-14 11:30N 65°15' E 011°56'5 9.9
2018-May-14 10:59N 65°10' E 011°51'5 9.5
2018-May-14 10:30N 65°06' E 011°47'510.0
2018-May-14 10:00N 65°01' E 011°41'5 9.5
2018-May-14 09:30N 64°58' E 011°33'5 9.9
2018-May-14 09:00N 64°55' E 011°24'510.4
2018-May-14 08:30N 64°52' E 011°15'5 9.7
2018-May-14 08:00N 64°48' E 011°07'510.0
2018-May-14 07:29N 64°44' E 010°58'5 9.8
2018-May-14 06:59N 64°41' E 010°50'5 9.8
2018-May-14 06:30N 64°38' E 010°42'510.1
2018-May-14 05:59N 64°34' E 010°34'510.0
2018-May-14 05:30N 64°31' E 010°26'5 9.6
2018-May-14 05:00N 64°27' E 010°18'5 9.3
2018-May-14 04:30N 64°24' E 010°10'5 9.1
2018-May-14 04:00N 64°21' E 010°03'5 9.2
2018-May-14 03:30N 64°17' E 009°56'5 9.4
2018-May-14 02:59N 64°14' E 009°49'5 9.5
2018-May-14 02:30N 64°10' E 009°43'5 9.6
2018-May-14 01:59N 64°06' E 009°36'5 9.6
2018-May-14 01:29N 64°02' E 009°30'5 9.7
2018-May-14 01:00N 63°58' E 009°24'5 9.8
2018-May-14 00:30N 63°54' E 009°18'5 9.9
2018-May-14 00:00N 63°50' E 009°11'5 9.6
2018-May-13 23:30N 63°46' E 009°05'5 9.3
2018-May-13 23:00N 63°42' E 008°59'3 7.0
2018-May-13 22:30N 63°39' E 008°54'3 5.7
2018-May-13 22:00N 63°38' E 008°48'0 0.0
2018-May-13 21:30N 63°38' E 008°48'0 0.0
2018-May-13 21:00N 63°38' E 008°48'0 0.0
2018-May-13 20:29N 63°38' E 008°48'0 0.0
2018-May-13 20:00N 63°38' E 008°48'0 0.0
2018-May-13 19:30N 63°38' E 008°48'0 0.0
2018-May-13 19:00N 63°38' E 008°48'0 0.0
2018-May-13 18:29N 63°38' E 008°48'0 0.0
2018-May-13 18:00N 63°38' E 008°48'0 0.0
2018-May-13 17:30N 63°38' E 008°48'0 0.0
2018-May-13 16:59N 63°38' E 008°48'0 0.0
2018-May-13 16:29N 63°38' E 008°48'0 0.0
2018-May-13 16:00N 63°38' E 008°48'0 0.0
2018-May-13 15:29N 63°38' E 008°48'0 0.0
2018-May-13 15:00N 63°38' E 008°48'0 0.0
2018-May-13 14:30N 63°38' E 008°48'0 0.0
2018-May-13 14:00N 63°38' E 008°48'0 0.0
2018-May-13 13:30N 63°38' E 008°48'0 0.0
2018-May-13 13:00N 63°38' E 008°48'0 0.0
2018-May-13 12:30N 63°38' E 008°48'0 0.0
2018-May-13 12:00N 63°38' E 008°48'0 0.0
2018-May-13 11:30N 63°38' E 008°48'0 0.0
2018-May-13 11:00N 63°38' E 008°48'0 0.0
2018-May-13 10:30N 63°38' E 008°48'0 0.0
2018-May-13 09:59N 63°38' E 008°48'0 0.0
2018-May-13 09:30N 63°38' E 008°48'0 0.0
2018-May-13 09:00N 63°38' E 008°48'0 0.0
2018-May-13 08:30N 63°38' E 008°48'0 0.0
2018-May-13 08:00N 63°38' E 008°48'0 0.0
2018-May-13 07:29N 63°38' E 008°48'0 0.0
2018-May-13 07:00N 63°38' E 008°48'0 0.0
2018-May-13 06:30N 63°38' E 008°48'0 0.0
2018-May-13 05:59N 63°38' E 008°48'0 0.0
2018-May-13 05:30N 63°38' E 008°48'0 0.0
2018-May-13 05:00N 63°38' E 008°48'0 0.0
2018-May-13 04:29N 63°38' E 008°48'0 0.0
2018-May-13 03:59N 63°38' E 008°48'0 0.0
2018-May-13 03:30N 63°38' E 008°48'0 0.0
2018-May-13 02:59N 63°38' E 008°48'0 0.0
2018-May-13 02:30N 63°38' E 008°48'2 3.4
2018-May-13 02:00N 63°39' E 008°52'4 8.4
2018-May-13 01:30N 63°41' E 009°00'4 7.8
2018-May-13 01:00N 63°41' E 009°09'4 8.8
2018-May-13 00:30N 63°38' E 009°16'4 8.4
2018-May-13 00:00N 63°37' E 009°25'4 8.1
2018-May-12 23:30N 63°38' E 009°35'5 9.5
2018-May-12 23:00N 63°39' E 009°45'5 9.0
2018-May-12 22:29N 63°35' E 009°50'4 7.8
2018-May-12 22:00N 63°32' E 009°54'4 7.7
2018-May-12 21:30N 63°29' E 009°59'4 8.2
2018-May-12 21:00N 63°29' E 010°08'5 9.3
2018-May-12 20:30N 63°32' E 010°17'4 7.5
2018-May-12 20:00N 63°33' E 010°25'4 7.3
2018-May-12 19:30N 63°35' E 010°31'4 7.7
2018-May-12 18:59N 63°38' E 010°38'4 7.8
2018-May-12 18:30N 63°40' E 010°45'4 7.8
2018-May-12 17:59N 63°43' E 010°52'4 7.3
2018-May-12 17:30N 63°45' E 010°58'4 7.6
2018-May-12 16:59N 63°48' E 011°02'3 6.8
2018-May-12 16:30N 63°52' E 011°04'3 6.8
2018-May-12 16:00N 63°55' E 011°06'4 7.7
2018-May-12 15:30N 63°57' E 011°13'4 7.2
2018-May-12 15:00N 63°59' E 011°20'4 8.1
2018-May-12 14:30N 64°01' E 011°29'0 0.8
2018-May-12 13:59N 64°01' E 011°29'0 0.0
2018-May-12 13:29N 64°01' E 011°29'0 0.0
2018-May-12 13:00N 64°01' E 011°29'0 0.0
2018-May-12 12:29N 64°01' E 011°29'0 0.0
2018-May-12 12:00N 64°01' E 011°29'0 0.0
2018-May-12 11:30N 64°01' E 011°29'0 0.0
2018-May-12 11:00N 64°01' E 011°29'0 0.0
2018-May-12 10:30N 64°01' E 011°29'0 0.0
2018-May-12 09:59N 64°01' E 011°29'0 0.0
2018-May-12 09:25N 64°01' E 011°29'0 0.0
2018-May-12 09:00N 64°01' E 011°29'0 0.0
2018-May-12 08:30N 64°01' E 011°29'0 0.0
2018-May-12 08:00N 64°01' E 011°29'0 0.0
2018-May-12 07:30N 64°01' E 011°29'0 0.0
2018-May-12 06:59N 64°01' E 011°29'0 0.0
2018-May-12 06:30N 64°01' E 011°29'0 0.0
2018-May-12 06:00N 64°01' E 011°29'0 0.1
2018-May-12 05:30N 64°01' E 011°29'0 0.0
2018-May-12 05:00N 64°01' E 011°29'0 0.0
2018-May-12 04:28N 64°01' E 011°29'0 0.0
2018-May-12 04:00N 64°01' E 011°29'0 0.0
2018-May-12 03:30N 64°01' E 011°29'0 0.0
2018-May-12 02:59N 64°01' E 011°29'  
Track history (hours):
 
Tides and Currents Weather Stations Pressure Air Temp Water Temp Dewpoint Dewpoint Depression Visibility Wind Speed Wind Dir Waves Ship Positions

Vargoey

Last reported at 2018-May-22 02:30 UTC. Time now 2018-May-22 02:29 UTC.
Position N 67°22' E 014°24'.

Length 55 m.

Type: Cargo ship. MMSI: 258434000.

Date/timePositionNaut miles runAvg speedWind from/ knotsBaromVisibWave heightAir tempDewpointWater temp
2018-May-22 02:30N 67°22' E 014°24'5 9.1
2018-May-22 02:00N 67°26' E 014°27'5 9.3
2018-May-22 01:30N 67°31' E 014°29'5 9.5
2018-May-22 00:59N 67°36' E 014°30'5 9.6
2018-May-22 00:29N 67°41' E 014°31'4 9.3
2018-May-22 00:00N 67°45' E 014°31'4 8.8
2018-May-21 23:30N 67°49' E 014°31'5 9.0
2018-May-21 22:59N 67°54' E 014°31'4 9.1
2018-May-21 22:30N 67°58' E 014°32'5 9.5
2018-May-21 21:59N 68°03' E 014°33'5 9.5
2018-May-21 21:30N 68°08' E 014°34'5 9.6
2018-May-21 21:00N 68°13' E 014°36'2 3.4
2018-May-21 20:30N 68°14' E 014°35'2 3.8
2018-May-21 20:00N 68°14' E 014°40'5 9.2
2018-May-21 19:30N 68°13' E 014°52'5 9.6
2018-May-21 19:00N 68°17' E 014°58'5 9.3
2018-May-21 18:30N 68°22' E 015°03'4 8.7
2018-May-21 18:00N 68°25' E 015°08'4 8.3
2018-May-21 17:30N 68°29' E 015°12'4 8.4
2018-May-21 17:00N 68°33' E 015°10'5 9.1
2018-May-21 16:30N 68°37' E 015°18'5 9.3
2018-May-21 16:00N 68°41' E 015°26'4 8.7
2018-May-21 15:30N 68°45' E 015°25'4 8.9
2018-May-21 15:00N 68°50' E 015°27'5 9.1
2018-May-21 14:29N 68°54' E 015°33'4 8.9
2018-May-21 14:00N 68°58' E 015°38'0 0.9
2018-May-21 13:30N 68°58' E 015°38'3 5.3
2018-May-21 13:00N 68°59' E 015°46'4 8.9
2018-May-21 12:30N 68°58' E 015°58'5 9.7
2018-May-21 12:00N 68°57' E 016°11'5 9.3
2018-May-21 11:30N 68°54' E 016°22'5 9.3
2018-May-21 10:59N 68°51' E 016°32'4 8.2
2018-May-21 10:30N 68°48' E 016°37'2 4.4
2018-May-21 09:59N 68°49' E 016°42'510.0
2018-May-21 09:30N 68°52' E 016°51'5 9.9
2018-May-21 09:00N 68°56' E 017°01'5 9.3
2018-May-21 08:30N 68°59' E 017°11'5 9.6
2018-May-21 08:00N 69°03' E 017°19'5 9.3
2018-May-21 07:30N 69°06' E 017°28'5 9.7
2018-May-21 07:00N 69°08' E 017°41'510.1
2018-May-21 06:29N 69°10' E 017°54'4 7.6
2018-May-21 06:00N 69°13' E 017°59'5 9.2
2018-May-21 05:27N 69°18' E 017°58'4 9.1
2018-May-21 05:00N 69°21' E 018°06'4 8.6
2018-May-21 04:30N 69°26' E 018°07'5 9.1
2018-May-21 03:58N 69°30' E 018°04'5 9.5
2018-May-21 03:30N 69°35' E 017°59'2 4.5
2018-May-21 03:00N 69°36' E 018°02'0 0.0
2018-May-21 02:30N 69°36' E 018°02'0 0.8
2018-May-21 02:00N 69°37' E 018°02'4 8.4
2018-May-21 01:29N 69°40' E 018°12'4 7.3
2018-May-21 01:00N 69°43' E 018°14'4 8.5
2018-May-21 00:30N 69°47' E 018°18'4 8.3
2018-May-21 00:00N 69°49' E 018°29'4 7.2
2018-May-20 23:30N 69°50' E 018°38'1 1.9
2018-May-20 22:59N 69°50' E 018°35'1 1.1
2018-May-20 22:28N 69°51' E 018°36'4 8.8
2018-May-20 22:00N 69°55' E 018°39'4 8.6
2018-May-20 21:30N 69°59' E 018°44'5 9.6
2018-May-20 21:00N 70°02' E 018°53'5 9.2
2018-May-20 20:30N 70°05' E 019°04'4 9.1
2018-May-20 20:00N 70°06' E 019°17'5 9.2
2018-May-20 19:29N 70°04' E 019°30'5 9.6
2018-May-20 19:00N 70°03' E 019°43'4 8.8
2018-May-20 18:30N 70°03' E 019°56'4 8.5
2018-May-20 18:00N 70°05' E 020°06'5 8.7
2018-May-20 17:28N 70°08' E 020°16'4 8.4
2018-May-20 17:00N 70°11' E 020°24'3 5.1
2018-May-20 16:30N 70°12' E 020°31'0 0.0
2018-May-20 16:00N 70°12' E 020°31'0 0.0
2018-May-20 15:30N 70°12' E 020°31'2 4.9
2018-May-20 15:00N 70°14' E 020°34'4 8.1
2018-May-20 14:30N 70°15' E 020°45'4 8.5
2018-May-20 13:59N 70°16' E 020°58'4 8.9
2018-May-20 13:30N 70°17' E 021°11'4 8.6
2018-May-20 13:00N 70°18' E 021°23'4 8.6
2018-May-20 12:29N 70°21' E 021°32'4 8.9
2018-May-20 12:00N 70°24' E 021°41'5 9.1
2018-May-20 11:29N 70°25' E 021°54'5 9.5
2018-May-20 11:00N 70°26' E 022°08'5 9.6
2018-May-20 10:30N 70°28' E 022°21'5 9.7
2018-May-20 10:00N 70°29' E 022°36'5 9.8
2018-May-20 09:29N 70°30' E 022°50'4 9.0
2018-May-20 09:00N 70°32' E 023°02'5 9.0
2018-May-20 08:29N 70°36' E 023°11'5 9.7
2018-May-20 08:00N 70°39' E 023°21'5 9.5
2018-May-20 07:30N 70°42' E 023°31'5 8.9
2018-May-20 06:59N 70°46' E 023°41'4 8.9
2018-May-20 06:29N 70°47' E 023°54'4 8.9
2018-May-20 06:00N 70°49' E 024°06'4 8.6
2018-May-20 05:30N 70°52' E 024°15'4 7.6
2018-May-20 04:59N 70°54' E 024°24'4 8.7
2018-May-20 04:30N 70°58' E 024°30'4 7.3
2018-May-20 04:00N 70°60' E 024°40'4 7.8
2018-May-20 03:29N 70°59' E 024°53'4 8.2
2018-May-20 03:00N 70°59' E 025°05'4 8.6
2018-May-20 02:30N 70°59' E 025°18'3 6.8
2018-May-20 02:00N 70°58' E 025°27'3 6.4
2018-May-20 01:30N 70°56' E 025°35'4 8.6
2018-May-20 01:00N 70°56' E 025°48'4 8.6
2018-May-20 00:30N 70°58' E 026°00'4 8.5
2018-May-20 00:00N 71°00' E 026°11'4 7.4
2018-May-19 23:29N 71°04' E 026°11'510.3
2018-May-19 23:00N 71°03' E 025°56'1 2.2
2018-May-19 22:30N 71°03' E 025°54'0 0.0
2018-May-19 22:00N 71°03' E 025°54'0 0.0
2018-May-19 21:30N 71°03' E 025°54'0 0.0
2018-May-19 21:00N 71°03' E 025°54'0 0.0
2018-May-19 20:30N 71°03' E 025°54'0 0.0
2018-May-19 20:00N 71°03' E 025°54'0 0.0
2018-May-19 19:30N 71°03' E 025°54'0 0.0
2018-May-19 18:59N 71°03' E 025°54'0 0.0
2018-May-19 18:29N 71°03' E 025°54'1 1.2
2018-May-19 18:00N 71°03' E 025°54'4 8.7
2018-May-19 17:30N 71°06' E 026°04'4 7.4
2018-May-19 17:00N 71°08' E 025°54'1 2.5
2018-May-19 16:30N 71°09' E 025°52'610.5
2018-May-19 15:58N 71°11' E 025°36'611.7
2018-May-19 15:30N 71°11' E 025°19'511.0
2018-May-19 15:00N 71°10' E 025°02'610.9
2018-May-19 14:30N 71°09' E 024°46'510.4
2018-May-19 14:00N 71°08' E 024°30'510.2
2018-May-19 13:30N 71°07' E 024°14'510.3
2018-May-19 13:00N 71°06' E 023°58'5 9.7
2018-May-19 12:29N 71°02' E 023°52'2 3.3
2018-May-19 12:00N 71°00' E 023°54'0 0.0
2018-May-19 11:30N 71°00' E 023°54'0 0.0
2018-May-19 11:00N 71°00' E 023°54'0 0.0
2018-May-19 10:30N 71°00' E 023°54'0 0.0
2018-May-19 09:59N 71°00' E 023°54'0 0.0
2018-May-19 09:30N 71°00' E 023°54'0 0.0
2018-May-19 09:00N 71°00' E 023°54'0 0.0
2018-May-19 08:30N 71°00' E 023°54'1 2.3
2018-May-19 08:00N 71°00' E 023°51'5 9.5
2018-May-19 07:30N 70°56' E 023°45'5 9.8
2018-May-19 06:59N 70°51' E 023°38'5 9.9
2018-May-19 06:30N 70°47' E 023°31'2 4.2
2018-May-19 06:00N 70°48' E 023°25'3 5.3
2018-May-19 05:30N 70°45' E 023°29'510.4
2018-May-19 05:00N 70°40' E 023°34'2 3.9
2018-May-19 04:30N 70°40' E 023°40'0 0.0
2018-May-19 04:00N 70°40' E 023°40'0 0.0
2018-May-19 03:30N 70°40' E 023°40'4 8.9
2018-May-19 03:00N 70°36' E 023°36'610.8
2018-May-19 02:29N 70°31' E 023°39'510.5
2018-May-19 02:00N 70°25' E 023°38'612.0
2018-May-19 01:30N 70°21' E 023°27'611.2
2018-May-19 01:00N 70°16' E 023°17'510.8
2018-May-19 00:30N 70°12' E 023°09'510.8
2018-May-19 00:00N 70°06' E 023°07'510.3
2018-May-18 23:30N 70°02' E 023°15'3 6.9
2018-May-18 23:00N 69°59' E 023°20'0 0.0
2018-May-18 22:30N 69°59' E 023°20'2 4.5
2018-May-18 22:00N 69°58' E 023°14'1 1.3
2018-May-18 21:30N 69°58' E 023°14'0 0.0
2018-May-18 20:57N 69°58' E 023°14'0 0.0
2018-May-18 20:29N 69°58' E 023°14'0 0.0
2018-May-18 19:57N 69°58' E 023°14'0 0.0
2018-May-18 19:30N 69°58' E 023°14'0 0.0
2018-May-18 19:00N 69°58' E 023°14'0 0.1
2018-May-18 18:30N 69°58' E 023°14'5 9.9
2018-May-18 18:00N 70°02' E 023°08'510.3
2018-May-18 17:29N 70°07' E 023°04'510.3
2018-May-18 17:00N 70°12' E 022°59'510.3
2018-May-18 16:30N 70°14' E 022°45'510.4
2018-May-18 15:59N 70°16' E 022°30'510.6
2018-May-18 15:30N 70°19' E 022°17'510.8
2018-May-18 15:00N 70°21' E 022°02'510.6
2018-May-18 14:30N 70°23' E 021°48'5 9.5
2018-May-18 14:00N 70°22' E 021°35'611.0
2018-May-18 13:28N 70°18' E 021°23'510.3
2018-May-18 12:57N 70°14' E 021°11'410.0
2018-May-18 12:30N 70°10' E 021°09'510.1
2018-May-18 12:00N 70°05' E 021°08'510.1
2018-May-18 11:29N 69°60' E 021°07'510.2
2018-May-18 11:00N 69°55' E 021°03'510.2
2018-May-18 10:30N 69°50' E 020°58'2 1.4
2018-May-18 08:48N 69°48' E 020°57'0 0.0
2018-May-18 08:23N 69°48' E 020°57'0 0.0
2018-May-18 07:59N 69°48' E 020°57'2 3.5
2018-May-18 07:30N 69°49' E 020°57'510.0
2018-May-18 06:59N 69°54' E 021°02'4 7.3
2018-May-18 06:30N 69°58' E 021°02'5 9.7
2018-May-18 06:00N 69°55' E 020°50'5 9.8
2018-May-18 05:29N 69°56' E 020°36'510.7
2018-May-18 04:59N 70°01' E 020°28'5 9.9
2018-May-18 04:30N 70°05' E 020°20'5 9.4
2018-May-18 04:00N 70°10' E 020°22'4 7.5
2018-May-18 03:30N 70°12' E 020°31'0 0.1
2018-May-18 03:00N 70°12' E 020°31'0 0.0
2018-May-18 02:30N 70°12' E 020°31'4 8.5
2018-May-18 01:59N 70°10' E 020°19'510.1
2018-May-18 01:30N 70°08' E 020°06'3 5.0
2018-May-18 00:59N 70°08' E 019°59'0 0.0
2018-May-18 00:29N 70°08' E 019°59'0 0.0
2018-May-18 00:00N 70°08' E 019°59'0 0.0
2018-May-17 23:30N 70°08' E 019°59'0 0.0
2018-May-17 23:00N 70°08' E 019°59'0 0.0
2018-May-17 22:30N 70°08' E 019°59'2 4.5
2018-May-17 22:00N 70°07' E 020°05'4 7.2
2018-May-17 21:30N 70°04' E 020°02'510.3
2018-May-17 21:00N 70°01' E 019°49'510.5
2018-May-17 20:30N 69°57' E 019°38'510.6
2018-May-17 20:00N 69°54' E 019°28'510.6
2018-May-17 19:30N 69°49' E 019°20'510.7
2018-May-17 19:00N 69°46' E 019°08'510.8
2018-May-17 18:30N 69°42' E 018°57'4 8.7
2018-May-17 17:59N 69°41' E 018°45'0 0.0
2018-May-17 17:30N 69°41' E 018°45'0 0.0
2018-May-17 17:00N 69°41' E 018°45'0 0.1
2018-May-17 16:29N 69°41' E 018°45'3 7.0
2018-May-17 16:00N 69°39' E 018°53'3 5.5
2018-May-17 15:30N 69°40' E 018°59'1 1.7
2018-May-17 15:00N 69°39' E 018°59'0 0.3
2018-May-17 14:29N 69°39' E 018°58'1 1.5
2018-May-17 14:00N 69°39' E 018°58'510.0
2018-May-17 13:30N 69°34' E 018°55'5 9.9
2018-May-17 13:00N 69°29' E 018°57'5 9.8
2018-May-17 12:30N 69°24' E 019°02'5 9.5
2018-May-17 12:00N 69°21' E 019°13'5 9.2
2018-May-17 11:29N 69°18' E 019°22'4 7.4
2018-May-17 11:00N 69°14' E 019°22'0 0.0
2018-May-17 10:30N 69°14' E 019°22'0 0.0
2018-May-17 10:00N 69°14' E 019°22'0 0.0
2018-May-17 09:28N 69°14' E 019°22'0 0.0
2018-May-17 09:00N 69°14' E 019°22'0 0.0
2018-May-17 08:30N 69°14' E 019°22'0 0.0
2018-May-17 08:00N 69°14' E 019°22'0 0.0
2018-May-17 07:29N 69°14' E 019°22'0 0.0
2018-May-17 07:00N 69°14' E 019°22'0 0.0
2018-May-17 06:29N 69°14' E 019°22'0 0.0
2018-May-17 06:00N 69°14' E 019°22'0 0.0
2018-May-17 05:30N 69°14' E 019°22'0 0.0
2018-May-17 05:00N 69°14' E 019°22'0 0.0
2018-May-17 04:30N 69°14' E 019°22'0 0.0
2018-May-17 03:58N 69°14' E 019°22'0 0.0
2018-May-17 03:30N 69°14' E 019°22'0 0.0
2018-May-17 03:00N 69°14' E 019°22'0 0.0
2018-May-17 02:30N 69°14' E 019°22'0 0.0
2018-May-17 02:00N 69°14' E 019°22'0 0.6
2018-May-17 01:30N 69°15' E 019°22'510.2
2018-May-17 00:59N 69°20' E 019°21'510.1
2018-May-17 00:30N 69°22' E 019°09'5 9.6
2018-May-16 23:59N 69°26' E 018°60'5 9.5
2018-May-16 23:30N 69°30' E 018°55'4 9.0
2018-May-16 23:00N 69°34' E 018°49'611.7
2018-May-16 22:30N 69°32' E 018°33'510.1
2018-May-16 22:00N 69°30' E 018°19'510.0
2018-May-16 21:30N 69°27' E 018°07'510.0
2018-May-16 20:58N 69°22' E 018°06'4 9.0
2018-May-16 20:30N 69°19' E 017°59'5 9.4
2018-May-16 19:59N 69°14' E 017°58'0 0.1
2018-May-16 19:30N 69°14' E 017°58'0 0.0
2018-May-16 19:00N 69°14' E 017°58'0 0.2
2018-May-16 18:30N 69°14' E 017°58'0 0.6
2018-May-16 18:00N 69°13' E 017°58'4 8.6
2018-May-16 17:30N 69°09' E 018°03'1 2.6
2018-May-16 17:00N 69°08' E 018°05'4 8.4
2018-May-16 16:29N 69°09' E 017°53'510.2
2018-May-16 16:00N 69°07' E 017°39'510.1
2018-May-16 15:30N 69°05' E 017°26'510.1
2018-May-16 15:00N 69°01' E 017°18'510.3
2018-May-16 14:30N 68°58' E 017°07'510.6
2018-May-16 13:59N 68°54' E 016°55'4 8.8
2018-May-16 13:30N 68°52' E 016°46'4 9.1
2018-May-16 13:00N 68°49' E 016°36'2 3.0
2018-May-16 12:29N 68°48' E 016°33'0 0.0
2018-May-16 11:59N 68°48' E 016°33'0 0.0
2018-May-16 11:30N 68°48' E 016°33'0 0.0
2018-May-16 11:00N 68°48' E 016°33'0 0.0
2018-May-16 10:29N 68°48' E 016°33'0 0.0
2018-May-16 10:00N 68°48' E 016°33'0 0.0
2018-May-16 09:30N 68°48' E 016°33'0 0.0
2018-May-16 09:00N 68°48' E 016°33'0 0.0
2018-May-16 08:30N 68°48' E 016°33'0 0.0
2018-May-16 08:00N 68°48' E 016°33'2 2.9
2018-May-16 07:29N 68°49' E 016°35'3 5.8
2018-May-16 07:00N 68°51' E 016°31'4 7.1
2018-May-16 06:30N 68°54' E 016°23'4 7.1
2018-May-16 05:59N 68°56' E 016°16'4 7.3
2018-May-16 05:30N 68°57' E 016°06'4 7.4
2018-May-16 05:00N 68°59' E 015°57'4 7.9
2018-May-16 04:30N 68°59' E 015°46'3 5.4
2018-May-16 04:00N 68°58' E 015°38'0 0.0
2018-May-16 03:30N 68°58' E 015°38'0 0.4
2018-May-16 02:59N 68°58' E 015°38'1 1.7
2018-May-16 02:30N 68°57' E 015°36'1 1.9
2018-May-16 02:00N 68°56' E 015°36'2 3.6
2018-May-16 01:30N 68°55' E 015°35'3 6.9
2018-May-16 01:00N 68°52' E 015°30'4 8.4
2018-May-16 00:30N 68°48' E 015°26'5 9.5
2018-May-16 00:00N 68°43' E 015°26'5 9.1
2018-May-15 23:30N 68°39' E 015°21'5 9.6
2018-May-15 23:00N 68°35' E 015°13'5 9.4
2018-May-15 22:29N 68°30' E 015°11'4 8.6
2018-May-15 22:00N 68°26' E 015°09'510.6
2018-May-15 21:30N 68°21' E 015°03'4 9.0
2018-May-15 21:00N 68°17' E 014°58'5 9.3
2018-May-15 20:30N 68°13' E 014°54'5 9.6
2018-May-15 20:00N 68°08' E 014°49'5 9.5
2018-May-15 19:29N 68°04' E 014°44'4 9.0
2018-May-15 19:00N 67°60' E 014°40'5 9.4
2018-May-15 18:30N 67°55' E 014°35'5 9.3
2018-May-15 18:00N 67°51' E 014°31'5 9.5
2018-May-15 17:30N 67°46' E 014°32'5 9.5
2018-May-15 17:00N 67°42' E 014°31'5 9.6
2018-May-15 16:30N 67°37' E 014°30'5 9.6
2018-May-15 15:59N 67°32' E 014°30'5 9.5
2018-May-15 15:30N 67°27' E 014°28'5 9.4
2018-May-15 15:01N 67°23' E 014°25'5 9.5
2018-May-15 14:30N 67°19' E 014°18'4 8.4
2018-May-15 14:00N 67°15' E 014°14'5 9.4
2018-May-15 13:30N 67°15' E 014°26'4 8.3
2018-May-15 13:00N 67°14' E 014°37'3 5.5
2018-May-15 12:30N 67°14' E 014°44'3 5.7
2018-May-15 12:00N 67°15' E 014°50'3 6.1
2018-May-15 11:30N 67°16' E 014°58'2 3.6
2018-May-15 11:00N 67°14' E 015°01'0 0.0
2018-May-15 10:29N 67°14' E 015°01'0 0.0
2018-May-15 10:00N 67°14' E 015°01'0 0.0
2018-May-15 09:30N 67°14' E 015°01'0 0.0
2018-May-15 09:00N 67°14' E 015°01'0 0.0
2018-May-15 08:30N 67°14' E 015°01'3 6.3
2018-May-15 08:00N 67°16' E 014°54'5 9.3
2018-May-15 07:30N 67°14' E 014°43'3 5.9
2018-May-15 07:00N 67°15' E 014°36'1 2.9
2018-May-15 06:30N 67°15' E 014°32'3 5.5
2018-May-15 06:00N 67°14' E 014°26'3 5.5
2018-May-15 05:30N 67°13' E 014°19'4 7.4
2018-May-15 05:00N 67°11' E 014°11'4 8.7
2018-May-15 04:30N 67°09' E 014°02'5 8.9
2018-May-15 04:00N 67°05' E 013°56'4 8.9
2018-May-15 03:30N 67°02' E 013°48'5 9.0
2018-May-15 02:59N 66°60' E 013°37'4 8.5
2018-May-15 02:30N 66°57' E 013°29'4 7.6
2018-May-15 01:59N 66°54' E 013°34'3 7.0
2018-May-15 01:30N 66°53' E 013°42'0 0.0
2018-May-15 01:00N 66°53' E 013°42'0 0.0
2018-May-15 00:30N 66°53' E 013°42'1 2.1
2018-May-15 00:00N 66°51' E 013°42'4 7.6
2018-May-14 23:30N 66°49' E 013°34'4 8.5
2018-May-14 23:00N 66°48' E 013°23'4 8.5
2018-May-14 22:30N 66°46' E 013°14'5 8.8
2018-May-14 21:59N 66°41' E 013°09'5 9.9
2018-May-14 21:30N 66°37' E 013°05'5 9.4
2018-May-14 21:00N 66°33' E 013°01'4 8.8
2018-May-14 20:30N 66°28' E 013°02'5 9.4
2018-May-14 20:00N 66°24' E 013°08'0 0.5
2018-May-14 19:30N 66°24' E 013°07'5 9.4
2018-May-14 19:00N 66°21' E 012°58'5 9.9
2018-May-14 18:30N 66°16' E 012°55'510.2
2018-May-14 18:00N 66°11' E 012°51'5 9.7
2018-May-14 17:30N 66°07' E 012°46'510.0
2018-May-14 17:00N 66°03' E 012°38'5 9.8
2018-May-14 16:30N 65°59' E 012°30'5 9.9
2018-May-14 16:00N 65°55' E 012°23'5 9.5
2018-May-14 15:29N 65°51' E 012°22'5 9.6
2018-May-14 15:00N 65°46' E 012°20'5 9.8
2018-May-14 14:30N 65°41' E 012°16'510.0
2018-May-14 14:00N 65°36' E 012°14'510.0
2018-May-14 13:30N 65°31' E 012°12'4 7.6
2018-May-14 13:00N 65°28' E 012°11'5 9.5
2018-May-14 12:30N 65°23' E 012°07'5 9.6
2018-May-14 12:00N 65°19' E 012°01'5 9.9
2018-May-14 11:30N 65°15' E 011°56'5 9.9
2018-May-14 10:59N 65°10' E 011°51'5 9.5
2018-May-14 10:30N 65°06' E 011°47'510.0
2018-May-14 10:00N 65°01' E 011°41'5 9.5
2018-May-14 09:30N 64°58' E 011°33'5 9.9
2018-May-14 09:00N 64°55' E 011°24'510.4
2018-May-14 08:30N 64°52' E 011°15'5 9.7
2018-May-14 08:00N 64°48' E 011°07'510.0
2018-May-14 07:29N 64°44' E 010°58'5 9.8
2018-May-14 06:59N 64°41' E 010°50'5 9.8
2018-May-14 06:30N 64°38' E 010°42'510.1
2018-May-14 05:59N 64°34' E 010°34'510.0
2018-May-14 05:30N 64°31' E 010°26'5 9.6
2018-May-14 05:00N 64°27' E 010°18'5 9.3
2018-May-14 04:30N 64°24' E 010°10'5 9.1
2018-May-14 04:00N 64°21' E 010°03'5 9.2
2018-May-14 03:30N 64°17' E 009°56'5 9.4
2018-May-14 02:59N 64°14' E 009°49'5 9.5
2018-May-14 02:30N 64°10' E 009°43'5 9.6
2018-May-14 01:59N 64°06' E 009°36'5 9.6
2018-May-14 01:29N 64°02' E 009°30'5 9.7
2018-May-14 01:00N 63°58' E 009°24'5 9.8
2018-May-14 00:30N 63°54' E 009°18'5 9.9
2018-May-14 00:00N 63°50' E 009°11'5 9.6
2018-May-13 23:30N 63°46' E 009°05'5 9.3
2018-May-13 23:00N 63°42' E 008°59'3 7.0
2018-May-13 22:30N 63°39' E 008°54'3 5.7
2018-May-13 22:00N 63°38' E 008°48'0 0.0
2018-May-13 21:30N 63°38' E 008°48'0 0.0
2018-May-13 21:00N 63°38' E 008°48'0 0.0
2018-May-13 20:29N 63°38' E 008°48'0 0.0
2018-May-13 20:00N 63°38' E 008°48'0 0.0
2018-May-13 19:30N 63°38' E 008°48'0 0.0
2018-May-13 19:00N 63°38' E 008°48'0 0.0
2018-May-13 18:29N 63°38' E 008°48'0 0.0
2018-May-13 18:00N 63°38' E 008°48'0 0.0
2018-May-13 17:30N 63°38' E 008°48'0 0.0
2018-May-13 16:59N 63°38' E 008°48'0 0.0
2018-May-13 16:29N 63°38' E 008°48'0 0.0
2018-May-13 16:00N 63°38' E 008°48'0 0.0
2018-May-13 15:29N 63°38' E 008°48'0 0.0
2018-May-13 15:00N 63°38' E 008°48'0 0.0
2018-May-13 14:30N 63°38' E 008°48'0 0.0
2018-May-13 14:00N 63°38' E 008°48'0 0.0
2018-May-13 13:30N 63°38' E 008°48'0 0.0
2018-May-13 13:00N 63°38' E 008°48'0 0.0
2018-May-13 12:30N 63°38' E 008°48'0 0.0
2018-May-13 12:00N 63°38' E 008°48'0 0.0
2018-May-13 11:30N 63°38' E 008°48'0 0.0
2018-May-13 11:00N 63°38' E 008°48'0 0.0
2018-May-13 10:30N 63°38' E 008°48'0 0.0
2018-May-13 09:59N 63°38' E 008°48'0 0.0
2018-May-13 09:30N 63°38' E 008°48'0 0.0
2018-May-13 09:00N 63°38' E 008°48'0 0.0
2018-May-13 08:30N 63°38' E 008°48'0 0.0
2018-May-13 08:00N 63°38' E 008°48'0 0.0
2018-May-13 07:29N 63°38' E 008°48'0 0.0
2018-May-13 07:00N 63°38' E 008°48'0 0.0
2018-May-13 06:30N 63°38' E 008°48'0 0.0
2018-May-13 05:59N 63°38' E 008°48'0 0.0
2018-May-13 05:30N 63°38' E 008°48'0 0.0
2018-May-13 05:00N 63°38' E 008°48'0 0.0
2018-May-13 04:29N 63°38' E 008°48'0 0.0
2018-May-13 03:59N 63°38' E 008°48'0 0.0
2018-May-13 03:30N 63°38' E 008°48'0 0.0
2018-May-13 02:59N 63°38' E 008°48'0 0.0
2018-May-13 02:30N 63°38' E 008°48'2 3.4
2018-May-13 02:00N 63°39' E 008°52'4 8.4
2018-May-13 01:30N 63°41' E 009°00'4 7.8
2018-May-13 01:00N 63°41' E 009°09'4 8.8
2018-May-13 00:30N 63°38' E 009°16'4 8.4
2018-May-13 00:00N 63°37' E 009°25'4 8.1
2018-May-12 23:30N 63°38' E 009°35'5 9.5
2018-May-12 23:00N 63°39' E 009°45'5 9.0
2018-May-12 22:29N 63°35' E 009°50'4 7.8
2018-May-12 22:00N 63°32' E 009°54'4 7.7
2018-May-12 21:30N 63°29' E 009°59'4 8.2
2018-May-12 21:00N 63°29' E 010°08'5 9.3
2018-May-12 20:30N 63°32' E 010°17'4 7.5
2018-May-12 20:00N 63°33' E 010°25'4 7.3
2018-May-12 19:30N 63°35' E 010°31'4 7.7
2018-May-12 18:59N 63°38' E 010°38'4 7.8
2018-May-12 18:30N 63°40' E 010°45'4 7.8
2018-May-12 17:59N 63°43' E 010°52'4 7.3
2018-May-12 17:30N 63°45' E 010°58'4 7.6
2018-May-12 16:59N 63°48' E 011°02'3 6.8
2018-May-12 16:30N 63°52' E 011°04'3 6.8
2018-May-12 16:00N 63°55' E 011°06'4 7.7
2018-May-12 15:30N 63°57' E 011°13'4 7.2
2018-May-12 15:00N 63°59' E 011°20'4 8.1
2018-May-12 14:30N 64°01' E 011°29'0 0.8
2018-May-12 13:59N 64°01' E 011°29'0 0.0
2018-May-12 13:29N 64°01' E 011°29'0 0.0
2018-May-12 13:00N 64°01' E 011°29'0 0.0
2018-May-12 12:29N 64°01' E 011°29'0 0.0
2018-May-12 12:00N 64°01' E 011°29'0 0.0
2018-May-12 11:30N 64°01' E 011°29'0 0.0
2018-May-12 11:00N 64°01' E 011°29'0 0.0
2018-May-12 10:30N 64°01' E 011°29'0 0.0
2018-May-12 09:59N 64°01' E 011°29'0 0.0
2018-May-12 09:25N 64°01' E 011°29'0 0.0
2018-May-12 09:00N 64°01' E 011°29'0 0.0
2018-May-12 08:30N 64°01' E 011°29'0 0.0
2018-May-12 08:00N 64°01' E 011°29'0 0.0
2018-May-12 07:30N 64°01' E 011°29'0 0.0
2018-May-12 06:59N 64°01' E 011°29'0 0.0
2018-May-12 06:30N 64°01' E 011°29'0 0.0
2018-May-12 06:00N 64°01' E 011°29'0 0.1
2018-May-12 05:30N 64°01' E 011°29'0 0.0
2018-May-12 05:00N 64°01' E 011°29'0 0.0
2018-May-12 04:28N 64°01' E 011°29'0 0.0
2018-May-12 04:00N 64°01' E 011°29'0 0.0
2018-May-12 03:30N 64°01' E 011°29'0 0.0
2018-May-12 02:59N 64°01' E 011°29'  

Dump ship's entire track history